createdAt,value
2022-11-02T00:04:46.120Z,10.30
2022-11-02T00:09:47.665Z,9.05
2022-11-02T00:14:49.292Z,10.90
2022-11-02T00:19:50.970Z,18.42
2022-11-02T00:24:53.242Z,18.48
2022-11-02T00:29:54.827Z,20.30
2022-11-02T00:34:56.494Z,14.75
2022-11-02T00:39:58.192Z,14.82
2022-11-02T00:44:59.793Z,12.85
2022-11-02T00:50:01.552Z,14.90
2022-11-02T00:55:03.221Z,14.77
2022-11-02T01:00:06.746Z,13.80
2022-11-02T01:05:09.919Z,14.70
2022-11-02T01:10:11.627Z,17.08
2022-11-02T01:15:14.175Z,14.98
2022-11-02T01:20:15.746Z,21.10
2022-11-02T01:25:17.754Z,19.65
2022-11-02T01:30:19.342Z,23.13
2022-11-02T01:35:20.940Z,28.35
2022-11-02T01:40:22.556Z,28.00
2022-11-02T01:45:24.210Z,27.98
2022-11-02T01:50:27.642Z,36.22
2022-11-02T01:55:32.661Z,23.63
2022-11-02T02:00:34.261Z,29.05
2022-11-02T02:05:41.352Z,23.55
2022-11-02T02:10:43.616Z,26.95
2022-11-02T02:16:33.485Z,23.90
2022-11-02T02:21:47.459Z,22.13
2022-11-02T02:27:16.165Z,29.83
2022-11-02T02:32:26.938Z,23.40
2022-11-02T02:37:40.650Z,30.60
2022-11-02T02:43:05.314Z,24.08
2022-11-02T02:48:15.218Z,28.60
2022-11-02T02:53:22.741Z,31.90
2022-11-02T02:58:28.500Z,30.13
2022-11-02T03:03:31.447Z,26.23
2022-11-02T03:08:38.274Z,23.55
2022-11-02T03:14:26.767Z,27.88
2022-11-02T03:19:49.593Z,23.75
2022-11-02T03:25:15.787Z,19.23
2022-11-02T03:30:23.176Z,28.27
2022-11-02T03:35:39.403Z,18.92
2022-11-02T03:40:54.747Z,15.43
2022-11-02T03:46:02.772Z,15.70
2022-11-02T03:51:10.438Z,12.02
2022-11-02T03:56:35.621Z,12.95
2022-11-02T04:01:42.672Z,12.88
2022-11-02T04:06:48.056Z,9.40
2022-11-02T04:12:08.597Z,11.68
2022-11-02T04:22:52.666Z,8.10
2022-11-02T04:27:54.321Z,7.80
2022-11-02T04:33:19.954Z,8.50
2022-11-02T04:38:40.824Z,9.77
2022-11-02T04:43:58.574Z,7.82
2022-11-02T04:49:00.548Z,7.80
2022-11-02T04:54:04.096Z,7.53
2022-11-02T04:59:06.780Z,8.15
2022-11-02T05:04:11.295Z,4.70
2022-11-02T05:09:14.434Z,5.47
2022-11-02T05:14:19.938Z,7.55
2022-11-02T05:19:22.070Z,7.95
2022-11-02T05:24:24.376Z,7.72
2022-11-02T05:29:26.842Z,8.98
2022-11-02T05:34:28.755Z,7.95
2022-11-02T05:39:30.595Z,7.88
2022-11-02T05:44:33.156Z,8.23
2022-11-02T05:49:35.444Z,10.45
2022-11-02T05:54:37.001Z,6.43
2022-11-02T05:59:38.600Z,7.57
2022-11-02T06:04:40.252Z,8.45
2022-11-02T06:09:42.037Z,6.30
2022-11-02T06:14:43.653Z,6.28
2022-11-02T06:19:45.224Z,11.50
2022-11-02T06:24:46.846Z,7.25
2022-11-02T06:29:48.440Z,7.65
2022-11-02T06:34:49.984Z,10.88
2022-11-02T06:39:51.529Z,5.60
2022-11-02T06:44:53.130Z,9.05
2022-11-02T06:49:54.668Z,5.57
2022-11-02T06:54:56.340Z,7.05
2022-11-02T07:00:04.156Z,8.93
2022-11-02T07:05:06.451Z,6.53
2022-11-02T07:10:10.532Z,16.08
2022-11-02T07:15:12.075Z,7.45
2022-11-02T07:20:13.635Z,13.48
2022-11-02T07:25:15.379Z,6.07
2022-11-02T07:30:17.269Z,7.43
2022-11-02T07:35:18.890Z,7.95
2022-11-02T07:40:20.438Z,6.78
2022-11-02T07:45:23.144Z,10.75
2022-11-02T07:50:27.238Z,12.82
2022-11-02T07:55:31.240Z,5.72
2022-11-02T08:00:37.223Z,5.97
2022-11-02T08:05:41.232Z,7.88
2022-11-02T08:10:44.335Z,8.75
2022-11-02T08:15:52.614Z,6.68
2022-11-02T08:20:58.232Z,8.40
2022-11-02T08:26:00.377Z,12.13
2022-11-02T08:31:02.300Z,10.77
2022-11-02T08:36:04.920Z,10.98
2022-11-02T08:41:06.539Z,10.90
2022-11-02T08:46:14.894Z,7.32
2022-11-02T08:51:17.483Z,13.73
2022-11-02T08:56:19.458Z,8.50
2022-11-02T09:01:21.082Z,8.73
2022-11-02T09:06:22.669Z,5.50
2022-11-02T09:11:24.181Z,15.93
2022-11-02T09:16:25.704Z,10.90
2022-11-02T09:21:27.258Z,16.60
2022-11-02T09:26:28.864Z,5.05
2022-11-02T09:31:30.500Z,10.50
2022-11-02T09:36:32.066Z,6.45
2022-11-02T09:41:43.367Z,6.63
2022-11-02T09:46:46.800Z,4.40
2022-11-02T09:51:52.161Z,3.70
2022-11-02T09:56:58.096Z,4.05
2022-11-02T10:02:16.142Z,4.10
2022-11-02T10:07:36.537Z,4.70
2022-11-02T10:12:56.818Z,3.33
2022-11-02T10:18:00.401Z,6.25
2022-11-02T10:23:08.013Z,3.63
2022-11-02T10:28:22.174Z,4.97
2022-11-02T10:33:27.783Z,6.47
2022-11-02T10:38:52.331Z,5.50
2022-11-02T10:44:14.484Z,4.65
2022-11-02T10:49:22.396Z,3.03
2022-11-02T10:54:33.240Z,4.43
2022-11-02T10:59:34.916Z,6.22
2022-11-02T11:04:37.947Z,5.00
2022-11-02T11:09:49.392Z,7.40
2022-11-02T11:20:39.884Z,6.43
2022-11-02T11:25:42.470Z,4.28
2022-11-02T11:30:59.383Z,5.00
2022-11-02T11:36:01.887Z,13.13
2022-11-02T11:41:04.288Z,4.65
2022-11-02T11:46:08.327Z,4.50
2022-11-02T11:51:27.827Z,5.63
2022-11-02T11:56:29.707Z,5.07
2022-11-02T12:01:40.122Z,6.38
2022-11-02T12:06:45.953Z,6.43
2022-11-02T12:12:11.313Z,5.68
2022-11-02T12:17:31.387Z,3.03
2022-11-02T12:22:41.317Z,3.85
2022-11-02T12:27:53.034Z,5.60
2022-11-02T12:33:24.008Z,3.28
2022-11-02T12:38:47.366Z,5.45
2022-11-02T12:43:50.749Z,4.13
2022-11-02T12:48:58.273Z,4.78
2022-11-02T12:54:24.621Z,4.25
2022-11-02T12:59:29.086Z,6.10
2022-11-02T13:04:41.590Z,3.85
2022-11-02T13:10:01.924Z,4.07
2022-11-02T13:15:10.909Z,8.35
2022-11-02T13:20:53.275Z,3.97
2022-11-02T13:25:59.475Z,4.65
2022-11-02T13:31:08.586Z,4.78
2022-11-02T13:36:15.255Z,4.57
2022-11-02T13:41:25.981Z,6.38
2022-11-02T13:46:46.285Z,4.20
2022-11-02T13:51:54.870Z,4.90
2022-11-02T13:56:58.645Z,5.95
2022-11-02T14:02:03.989Z,3.85
2022-11-02T14:07:19.397Z,4.82
2022-11-02T14:12:20.912Z,7.35
2022-11-02T14:17:22.596Z,5.18
2022-11-02T14:22:24.278Z,4.43
2022-11-02T14:27:25.842Z,5.25
2022-11-02T14:32:40.964Z,3.53
2022-11-02T14:38:21.351Z,3.97
2022-11-02T14:43:57.042Z,4.22
2022-11-02T14:49:00.867Z,5.47
2022-11-02T14:54:14.391Z,3.85
2022-11-02T14:59:21.294Z,4.90
2022-11-02T15:04:25.258Z,5.32
2022-11-02T15:09:57.084Z,5.93
2022-11-02T15:15:01.992Z,7.57
2022-11-02T15:20:15.625Z,4.05
2022-11-02T15:25:25.692Z,3.15
2022-11-02T15:30:28.737Z,5.65
2022-11-02T15:35:34.089Z,5.00
2022-11-02T15:40:45.468Z,3.45
2022-11-02T15:46:05.038Z,4.70
2022-11-02T15:51:26.381Z,5.22
2022-11-02T15:56:49.348Z,5.45
2022-11-02T16:02:10.206Z,5.78
2022-11-02T16:07:14.925Z,3.05
2022-11-02T16:12:21.876Z,5.43
2022-11-02T16:22:26.951Z,5.22
2022-11-02T16:27:28.550Z,4.57
2022-11-02T16:32:30.547Z,6.55
2022-11-02T16:37:32.583Z,3.63
2022-11-02T16:42:34.274Z,6.10
2022-11-02T16:47:41.551Z,6.82
2022-11-02T16:52:54.199Z,4.05
2022-11-02T16:57:56.750Z,5.47
2022-11-02T17:03:07.466Z,8.63
2022-11-02T17:08:26.328Z,5.60
2022-11-02T17:13:35.478Z,5.93
2022-11-02T17:18:37.792Z,4.55
2022-11-02T17:23:46.255Z,5.03
2022-11-02T17:29:02.328Z,5.03
2022-11-02T17:34:15.521Z,6.03
2022-11-02T17:39:19.528Z,6.30
2022-11-02T17:44:21.144Z,6.15
2022-11-02T17:49:22.709Z,6.65
2022-11-02T17:54:24.650Z,6.47
2022-11-02T17:59:26.133Z,6.15
2022-11-02T18:04:27.626Z,4.55
2022-11-02T18:09:29.259Z,7.30
2022-11-02T18:14:30.865Z,4.28
2022-11-02T18:19:33.378Z,4.00
2022-11-02T18:24:35.232Z,4.30
2022-11-02T18:29:36.840Z,5.97
2022-11-02T18:34:38.346Z,5.63
2022-11-02T18:39:39.950Z,5.85
2022-11-02T18:44:41.589Z,5.07
2022-11-02T18:49:43.376Z,5.55
2022-11-02T18:54:45.070Z,7.00
2022-11-02T18:59:46.609Z,9.05
2022-11-02T19:04:48.192Z,6.15
2022-11-02T19:09:49.800Z,8.63
2022-11-02T19:14:53.429Z,4.97
2022-11-02T19:19:55.159Z,4.13
2022-11-02T19:24:56.777Z,6.20
2022-11-02T19:29:58.330Z,8.68
2022-11-02T19:34:59.839Z,6.10
2022-11-02T19:40:02.267Z,6.32
2022-11-02T19:45:06.430Z,6.97
2022-11-02T19:50:17.454Z,6.93
2022-11-02T19:55:22.681Z,5.10
2022-11-02T20:00:24.260Z,5.63
2022-11-02T20:05:25.828Z,5.72
2022-11-02T20:10:27.421Z,7.35
2022-11-02T20:15:29.061Z,6.13
2022-11-02T20:20:30.591Z,13.38
2022-11-02T20:25:32.139Z,11.70
2022-11-02T20:30:33.673Z,4.75
2022-11-02T20:35:35.836Z,6.20
2022-11-02T20:40:41.114Z,11.00
2022-11-02T20:45:42.990Z,7.20
2022-11-02T20:50:44.606Z,7.70
2022-11-02T20:55:46.459Z,8.70
2022-11-02T21:00:48.197Z,7.40
2022-11-02T21:05:50.522Z,8.18
2022-11-02T21:11:00.240Z,10.10
2022-11-02T21:16:05.222Z,9.68
2022-11-02T21:21:12.116Z,11.70
2022-11-02T21:26:15.218Z,7.22
2022-11-02T21:31:19.506Z,5.78
2022-11-02T21:36:21.135Z,6.95
2022-11-02T21:41:28.913Z,5.63
2022-11-02T21:46:30.656Z,6.85
2022-11-02T21:51:32.220Z,6.80
2022-11-02T21:56:36.090Z,5.07
2022-11-02T22:01:48.426Z,5.82
2022-11-02T22:06:51.029Z,7.10
2022-11-02T22:12:11.244Z,6.43
2022-11-02T22:17:35.304Z,8.15
2022-11-02T22:22:35.043Z,6.25
2022-11-02T22:27:36.588Z,5.65
2022-11-02T22:32:38.178Z,7.68
2022-11-02T22:37:58.110Z,10.85
2022-11-02T22:42:59.613Z,7.97
2022-11-02T22:48:01.185Z,6.60
2022-11-02T22:53:02.737Z,9.55
2022-11-02T22:58:04.338Z,7.25
2022-11-02T23:03:06.068Z,6.53
2022-11-02T23:08:07.804Z,13.15
2022-11-02T23:13:09.563Z,8.35
2022-11-02T23:18:11.172Z,8.57
2022-11-02T23:23:31.359Z,8.82
2022-11-02T23:28:51.770Z,6.38
2022-11-02T23:33:53.341Z,6.63
2022-11-02T23:39:13.557Z,9.18
2022-11-02T23:44:15.110Z,8.50
2022-11-02T23:49:18.017Z,10.38
2022-11-02T23:54:38.456Z,12.18
2022-11-02T23:59:40.120Z,7.82
